createdAt,value
2017-06-01T00:00:13.894Z,12.25
2017-06-01T00:01:14.509Z,12.25
2017-06-01T00:02:15.122Z,12.28
2017-06-01T00:03:15.737Z,12.25
2017-06-01T00:04:16.350Z,12.24
2017-06-01T00:05:16.967Z,12.18
2017-06-01T00:06:17.586Z,12.24
2017-06-01T00:07:18.197Z,12.22
2017-06-01T00:08:18.817Z,12.13
2017-06-01T00:09:19.427Z,12.20
2017-06-01T00:10:20.092Z,12.06
2017-06-01T00:11:20.707Z,12.18
2017-06-01T00:12:21.329Z,12.09
2017-06-01T00:13:21.940Z,12.13
2017-06-01T00:14:22.589Z,12.17
2017-06-01T00:15:23.253Z,11.95
2017-06-01T00:16:23.866Z,11.97
2017-06-01T00:17:24.485Z,11.90
2017-06-01T00:18:25.102Z,11.75
2017-06-01T00:19:25.720Z,11.68
2017-06-01T00:20:26.333Z,11.59
2017-06-01T00:21:26.947Z,11.59
2017-06-01T00:22:27.567Z,11.57
2017-06-01T00:23:28.177Z,11.59
2017-06-01T00:24:28.796Z,11.51
2017-06-01T00:25:29.457Z,11.51
2017-06-01T00:26:30.072Z,11.45
2017-06-01T00:27:30.694Z,11.45
2017-06-01T00:28:31.311Z,11.57
2017-06-01T00:29:31.922Z,11.62
2017-06-01T00:30:32.592Z,11.60
2017-06-01T00:31:33.205Z,11.63
2017-06-01T00:32:33.819Z,11.65
2017-06-01T00:33:34.434Z,11.66
2017-06-01T00:34:35.051Z,11.60
2017-06-01T00:35:35.668Z,11.62
2017-06-01T00:36:36.278Z,11.65
2017-06-01T00:37:36.898Z,11.57
2017-06-01T00:38:37.508Z,11.60
2017-06-01T00:39:38.156Z,11.51
2017-06-01T00:40:38.770Z,11.45
2017-06-01T00:41:39.384Z,11.36
2017-06-01T00:42:40.030Z,11.36
2017-06-01T00:43:40.646Z,11.35
2017-06-01T00:44:41.293Z,11.33
2017-06-01T00:45:41.958Z,11.30
2017-06-01T00:46:42.579Z,11.35
2017-06-01T00:47:43.217Z,11.41
2017-06-01T00:48:43.805Z,11.41
2017-06-01T00:49:44.417Z,11.44
2017-06-01T00:50:45.031Z,11.44
2017-06-01T00:51:45.645Z,11.47
2017-06-01T00:52:46.266Z,11.47
2017-06-01T00:53:46.879Z,11.44
2017-06-01T00:54:47.492Z,11.55
2017-06-01T00:55:48.155Z,11.55
2017-06-01T00:56:48.769Z,11.50
2017-06-01T00:57:49.382Z,11.48
2017-06-01T00:58:49.995Z,11.48
2017-06-01T00:59:50.640Z,11.47
2017-06-01T01:00:51.303Z,11.50
2017-06-01T01:01:51.925Z,11.52
2017-06-01T01:02:52.537Z,11.47
2017-06-01T01:03:53.150Z,11.44
2017-06-01T01:04:53.763Z,11.41
2017-06-01T01:05:54.427Z,11.36
2017-06-01T01:06:55.049Z,11.45
2017-06-01T01:07:55.658Z,11.44
2017-06-01T01:08:56.310Z,11.40
2017-06-01T01:09:56.887Z,11.36
2017-06-01T01:10:57.534Z,11.36
2017-06-01T01:11:58.116Z,11.48
2017-06-01T01:12:58.732Z,11.35
2017-06-01T01:13:59.352Z,11.41
2017-06-01T01:14:59.962Z,11.41
2017-06-01T01:16:00.627Z,11.33
2017-06-01T01:17:01.242Z,11.36
2017-06-01T01:18:01.855Z,11.32
2017-06-01T01:19:02.469Z,11.32
2017-06-01T01:20:03.090Z,11.26
2017-06-01T01:21:03.699Z,11.29
2017-06-01T01:22:04.346Z,11.15
2017-06-01T01:23:04.990Z,11.14
2017-06-01T01:24:05.605Z,11.22
2017-06-01T01:25:06.219Z,11.10
2017-06-01T01:26:06.883Z,11.08
2017-06-01T01:27:07.498Z,11.00
2017-06-01T01:28:08.113Z,10.97
2017-06-01T01:29:08.726Z,11.00
2017-06-01T01:30:09.344Z,11.02
2017-06-01T01:31:09.959Z,11.05
2017-06-01T01:32:10.571Z,10.99
2017-06-01T01:33:11.184Z,11.00
2017-06-01T01:34:11.802Z,11.00
2017-06-01T01:35:12.454Z,11.10
2017-06-01T01:36:13.116Z,11.18
2017-06-01T01:37:13.766Z,11.11
2017-06-01T01:38:14.418Z,11.14
2017-06-01T01:39:15.069Z,11.25
2017-06-01T01:43:06.370Z,11.30
2017-06-01T01:44:07.035Z,11.23
2017-06-01T01:45:07.650Z,11.25
2017-06-01T01:46:08.264Z,11.23
2017-06-01T01:47:08.912Z,11.27
2017-06-01T01:48:09.561Z,11.25
2017-06-01T01:49:10.259Z,11.26
2017-06-01T01:50:10.873Z,11.23
2017-06-01T01:51:11.487Z,11.19
2017-06-01T01:52:12.099Z,11.17
2017-06-01T01:53:12.714Z,11.15
2017-06-01T01:54:13.381Z,11.22
2017-06-01T01:55:13.993Z,11.17
2017-06-01T01:56:14.613Z,11.22
2017-06-01T01:57:15.223Z,11.23
2017-06-01T01:58:15.877Z,11.26
2017-06-01T01:59:16.580Z,11.26
2017-06-01T02:00:17.191Z,11.26
2017-06-01T02:01:17.805Z,11.30
2017-06-01T02:02:18.418Z,11.36
2017-06-01T02:03:19.053Z,11.32
2017-06-01T02:04:19.656Z,11.35
2017-06-01T02:05:20.291Z,11.33
2017-06-01T02:06:20.884Z,11.33
2017-06-01T02:07:21.499Z,11.32
2017-06-01T02:08:22.110Z,11.35
2017-06-01T02:09:22.779Z,11.51
2017-06-01T02:10:23.398Z,11.44
2017-06-01T02:11:24.008Z,11.40
2017-06-01T02:12:24.662Z,11.47
2017-06-01T02:13:25.281Z,11.47
2017-06-01T02:14:25.975Z,11.45
2017-06-01T02:15:26.589Z,11.48
2017-06-01T02:16:27.200Z,11.44
2017-06-01T02:17:27.813Z,11.50
2017-06-01T02:18:28.459Z,11.48
2017-06-01T02:19:29.072Z,11.50
2017-06-01T02:20:29.691Z,11.37
2017-06-01T02:21:30.300Z,11.48
2017-06-01T02:22:30.914Z,11.40
2017-06-01T02:23:31.530Z,11.40
2017-06-01T02:24:32.201Z,11.43
2017-06-01T02:25:32.825Z,11.48
2017-06-01T02:26:33.425Z,11.44
2017-06-01T02:27:34.035Z,11.47
2017-06-01T02:28:34.648Z,11.47
2017-06-01T02:29:35.300Z,11.51
2017-06-01T02:30:35.946Z,11.48
2017-06-01T02:31:36.561Z,11.54
2017-06-01T02:32:37.179Z,11.54
2017-06-01T02:33:37.792Z,11.59
2017-06-01T02:34:38.406Z,11.63
2017-06-01T02:35:39.026Z,11.57
2017-06-01T02:36:39.677Z,11.62
2017-06-01T02:37:40.289Z,11.59
2017-06-01T02:38:40.904Z,11.60
2017-06-01T02:39:41.516Z,11.59
2017-06-01T02:40:42.132Z,11.65
2017-06-01T02:41:42.744Z,11.60
2017-06-01T02:42:43.358Z,11.65
2017-06-01T02:43:43.973Z,11.66
2017-06-01T02:44:44.586Z,11.51
2017-06-01T02:45:45.200Z,11.59
2017-06-01T02:46:45.817Z,11.52
2017-06-01T02:47:46.428Z,11.57
2017-06-01T02:48:47.042Z,11.48
2017-06-01T02:49:47.706Z,11.51
2017-06-01T02:50:48.320Z,11.48
2017-06-01T02:51:48.934Z,11.51
2017-06-01T02:52:49.581Z,11.48
2017-06-01T02:53:50.196Z,11.48
2017-06-01T02:54:50.860Z,11.48
2017-06-01T02:55:51.475Z,11.51
2017-06-01T02:56:52.090Z,11.57
2017-06-01T02:57:52.703Z,11.54
2017-06-01T02:58:53.317Z,11.48
2017-06-01T02:59:53.929Z,11.55
2017-06-01T03:00:54.547Z,11.57
2017-06-01T03:01:55.162Z,11.59
2017-06-01T03:02:55.777Z,11.57
2017-06-01T03:03:56.391Z,11.57
2017-06-01T03:04:57.010Z,11.52
2017-06-01T03:05:57.620Z,11.57
2017-06-01T03:06:58.240Z,11.51
2017-06-01T03:07:58.852Z,11.55
2017-06-01T03:08:59.467Z,11.54
2017-06-01T03:10:00.131Z,11.52
2017-06-01T03:11:00.745Z,11.51
2017-06-01T03:12:01.364Z,11.44
2017-06-01T03:13:01.976Z,11.43
2017-06-01T03:14:02.587Z,11.35
2017-06-01T03:15:03.203Z,11.29
2017-06-01T03:16:03.818Z,11.41
2017-06-01T03:17:04.433Z,11.32
2017-06-01T03:18:05.079Z,11.33
2017-06-01T03:19:05.693Z,11.41
2017-06-01T03:20:06.358Z,11.40
2017-06-01T03:21:06.971Z,11.45
2017-06-01T03:22:07.585Z,11.41
2017-06-01T03:23:08.204Z,11.44
2017-06-01T03:24:08.816Z,11.45
2017-06-01T03:25:09.487Z,11.37
2017-06-01T03:26:10.105Z,11.51
2017-06-01T03:27:10.715Z,11.47
2017-06-01T03:28:11.328Z,11.44
2017-06-01T03:29:11.942Z,11.41
2017-06-01T03:30:12.611Z,11.43
2017-06-01T03:31:13.259Z,11.32
2017-06-01T03:32:13.883Z,11.35
2017-06-01T03:33:14.492Z,11.33
2017-06-01T03:34:15.116Z,11.36
2017-06-01T03:35:15.720Z,11.33
2017-06-01T03:36:16.334Z,11.40
2017-06-01T03:37:16.980Z,11.41
2017-06-01T03:38:17.631Z,11.33
2017-06-01T03:39:18.242Z,11.30
2017-06-01T03:40:18.905Z,11.17
2017-06-01T03:41:19.520Z,11.18
2017-06-01T03:42:20.141Z,11.19
2017-06-01T03:43:20.757Z,10.97
2017-06-01T03:44:21.373Z,11.02
2017-06-01T03:45:22.032Z,10.94
2017-06-01T03:46:22.646Z,10.94
2017-06-01T03:47:23.260Z,10.89
2017-06-01T03:48:23.880Z,10.97
2017-06-01T03:49:24.497Z,10.93
2017-06-01T03:50:25.165Z,11.04
2017-06-01T03:51:25.775Z,10.96
2017-06-01T03:52:26.393Z,10.93
2017-06-01T03:53:27.003Z,11.00
2017-06-01T03:54:27.618Z,10.90
2017-06-01T03:55:28.284Z,11.00
2017-06-01T03:56:28.898Z,11.05
2017-06-01T03:57:29.549Z,10.96
2017-06-01T03:58:30.170Z,10.99
2017-06-01T03:59:30.817Z,10.97
2017-06-01T04:00:31.478Z,10.90
2017-06-01T04:01:32.099Z,10.84
2017-06-01T04:02:32.710Z,10.86
2017-06-01T04:03:33.325Z,10.84
2017-06-01T04:04:33.975Z,10.69
2017-06-01T04:05:34.637Z,10.82
2017-06-01T04:06:35.255Z,10.79
2017-06-01T04:07:35.908Z,10.87
2017-06-01T04:08:36.520Z,10.82
2017-06-01T04:09:37.135Z,10.82
2017-06-01T04:10:37.800Z,10.81
2017-06-01T04:11:38.416Z,10.87
2017-06-01T04:12:39.029Z,10.87
2017-06-01T04:13:39.644Z,10.89
2017-06-01T04:14:40.258Z,10.92
2017-06-01T04:15:40.906Z,10.87
2017-06-01T04:16:41.519Z,10.96
2017-06-01T04:17:42.136Z,10.90
2017-06-01T04:18:42.832Z,10.89
2017-06-01T04:19:43.390Z,10.90
2017-06-01T04:20:44.004Z,10.74
2017-06-01T04:21:44.619Z,10.86
2017-06-01T04:22:45.234Z,10.86
2017-06-01T04:23:45.849Z,10.76
2017-06-01T04:24:46.464Z,10.90
2017-06-01T04:25:47.135Z,10.81
2017-06-01T04:26:47.753Z,10.76
2017-06-01T04:27:48.370Z,10.79
2017-06-01T04:28:48.991Z,10.79
2017-06-01T04:29:49.601Z,10.89
2017-06-01T04:30:50.300Z,10.90
2017-06-01T04:31:50.914Z,11.02
2017-06-01T04:32:51.528Z,10.97
2017-06-01T04:33:52.144Z,11.05
2017-06-01T04:34:52.760Z,11.08
2017-06-01T04:35:53.423Z,11.08
2017-06-01T04:36:54.070Z,11.19
2017-06-01T04:37:54.684Z,11.17
2017-06-01T04:38:55.305Z,11.29
2017-06-01T04:39:55.917Z,11.26
2017-06-01T04:40:56.583Z,11.29
2017-06-01T04:41:57.196Z,11.32
2017-06-01T04:42:57.808Z,11.33
2017-06-01T04:43:58.456Z,11.33
2017-06-01T04:44:59.069Z,11.32
2017-06-01T04:45:59.684Z,11.30
2017-06-01T04:47:00.304Z,11.36
2017-06-01T04:48:00.957Z,11.43
2017-06-01T04:49:01.605Z,11.43
2017-06-01T04:50:02.218Z,11.41
2017-06-01T04:51:02.832Z,11.35
2017-06-01T04:52:03.448Z,11.41
2017-06-01T04:53:04.065Z,11.47
2017-06-01T04:54:04.713Z,11.48
2017-06-01T04:55:05.329Z,11.45
2017-06-01T04:56:05.944Z,11.48
2017-06-01T04:57:06.559Z,11.47
2017-06-01T04:58:07.173Z,11.52
2017-06-01T04:59:07.786Z,11.54
2017-06-01T05:00:08.401Z,11.62
2017-06-01T05:01:09.098Z,11.55
2017-06-01T05:02:09.715Z,11.50
2017-06-01T05:03:10.364Z,11.68
2017-06-01T05:04:10.979Z,11.59
2017-06-01T05:05:11.593Z,11.66
2017-06-01T05:06:12.207Z,11.62
2017-06-01T05:07:12.824Z,11.65
2017-06-01T05:08:13.437Z,11.78
2017-06-01T05:09:14.058Z,11.65
2017-06-01T05:10:14.675Z,11.73
2017-06-01T05:11:15.339Z,11.69
2017-06-01T05:12:15.993Z,11.72
2017-06-01T05:13:16.605Z,11.72
2017-06-01T05:14:17.222Z,11.66
2017-06-01T05:15:17.835Z,11.63
2017-06-01T05:16:18.454Z,11.69
2017-06-01T05:17:19.067Z,11.70
2017-06-01T05:18:19.684Z,11.72
2017-06-01T05:19:20.302Z,11.70
2017-06-01T05:20:20.917Z,11.78
2017-06-01T05:21:21.534Z,11.72
2017-06-01T05:22:22.152Z,11.81
2017-06-01T05:23:22.765Z,11.77
2017-06-01T05:24:23.382Z,11.81
2017-06-01T05:25:23.997Z,11.88
2017-06-01T05:26:24.661Z,11.80
2017-06-01T05:27:25.275Z,11.86
2017-06-01T05:28:25.889Z,11.91
2017-06-01T05:29:26.504Z,11.88
2017-06-01T05:30:27.127Z,11.90
2017-06-01T05:31:27.796Z,11.97
2017-06-01T05:32:28.405Z,11.90
2017-06-01T05:33:29.025Z,11.88
2017-06-01T05:34:29.637Z,11.87
2017-06-01T05:35:30.254Z,11.87
2017-06-01T05:36:30.922Z,11.91
2017-06-01T05:37:31.538Z,11.95
2017-06-01T05:38:32.152Z,11.88
2017-06-01T05:39:32.769Z,11.88
2017-06-01T05:40:33.385Z,11.80
2017-06-01T05:41:34.002Z,11.83
2017-06-01T05:42:34.619Z,11.80
2017-06-01T05:43:35.236Z,11.81
2017-06-01T05:44:35.850Z,11.75
2017-06-01T05:45:36.472Z,11.75
2017-06-01T05:46:37.137Z,11.77
2017-06-01T05:47:37.754Z,11.75
2017-06-01T05:48:38.372Z,11.72
2017-06-01T05:49:38.997Z,11.73
2017-06-01T05:50:39.618Z,11.60
2017-06-01T05:51:40.280Z,11.63
2017-06-01T05:52:40.899Z,11.65
2017-06-01T05:53:41.516Z,11.66
2017-06-01T05:54:42.133Z,11.68
2017-06-01T05:55:42.753Z,11.81
2017-06-01T05:56:43.425Z,11.73
2017-06-01T05:57:44.039Z,11.80
2017-06-01T05:58:44.656Z,11.88
2017-06-01T05:59:45.274Z,11.91
2017-06-01T06:00:45.891Z,11.99
2017-06-01T06:01:46.564Z,11.99
2017-06-01T06:02:47.215Z,11.91
2017-06-01T06:03:47.832Z,11.97
2017-06-01T06:04:48.488Z,11.81
2017-06-01T06:05:49.104Z,11.81
2017-06-01T06:06:49.776Z,11.78
2017-06-01T06:07:50.390Z,11.69
2017-06-01T06:08:51.009Z,11.77
2017-06-01T06:09:51.632Z,11.80
2017-06-01T06:10:52.252Z,11.86
2017-06-01T06:11:52.951Z,11.94
2017-06-01T06:12:53.574Z,11.97
2017-06-01T06:13:54.190Z,12.07
2017-06-01T06:14:54.807Z,12.09
2017-06-01T06:15:55.424Z,12.15
2017-06-01T06:16:56.093Z,12.13
2017-06-01T06:17:56.712Z,12.15
2017-06-01T06:18:57.329Z,12.09
2017-06-01T06:19:57.951Z,12.10
2017-06-01T06:20:58.600Z,12.12
2017-06-01T06:21:59.215Z,12.00
2017-06-01T06:22:59.838Z,12.06
2017-06-01T06:24:00.456Z,11.95
2017-06-01T06:25:01.079Z,12.04
2017-06-01T06:26:01.695Z,11.95
2017-06-01T06:27:02.361Z,12.07
2017-06-01T06:28:02.979Z,12.13
2017-06-01T06:29:03.605Z,12.15
2017-06-01T06:30:04.218Z,12.04
2017-06-01T06:31:04.835Z,12.20
2017-06-01T06:32:05.501Z,12.21
2017-06-01T06:33:06.124Z,12.09
2017-06-01T06:34:06.738Z,12.03
2017-06-01T06:35:07.355Z,12.09
2017-06-01T06:36:07.971Z,12.09
2017-06-01T06:37:08.640Z,12.20
2017-06-01T06:38:09.262Z,12.24
2017-06-01T06:39:09.876Z,12.22
2017-06-01T06:40:10.494Z,12.22
2017-06-01T06:41:11.108Z,12.21
2017-06-01T06:42:11.778Z,12.13
2017-06-01T06:43:12.395Z,12.13
2017-06-01T06:44:13.015Z,12.17
2017-06-01T06:45:13.628Z,12.18
2017-06-01T06:46:14.246Z,12.24
2017-06-01T06:47:14.915Z,12.22
2017-06-01T06:48:15.532Z,12.31
2017-06-01T06:49:16.181Z,12.27
2017-06-01T06:50:16.798Z,12.28
2017-06-01T06:51:17.415Z,12.29
2017-06-01T06:52:18.083Z,12.39
2017-06-01T06:53:18.700Z,12.40
2017-06-01T06:54:19.318Z,12.46
2017-06-01T06:55:19.936Z,12.47
2017-06-01T06:56:20.554Z,12.50
2017-06-01T06:57:21.256Z,12.47
2017-06-01T06:58:21.872Z,12.54
2017-06-01T06:59:22.496Z,12.61
2017-06-01T07:00:23.110Z,12.58
2017-06-01T07:01:23.728Z,12.57
2017-06-01T07:02:24.550Z,12.65
2017-06-01T07:03:25.174Z,12.72
2017-06-01T07:04:25.826Z,12.72
2017-06-01T07:05:26.443Z,12.67
2017-06-01T07:06:27.061Z,12.55
2017-06-01T07:07:27.727Z,12.57
2017-06-01T07:08:28.351Z,12.45
2017-06-01T07:09:28.967Z,12.50
2017-06-01T07:10:29.590Z,12.54
2017-06-01T07:11:30.209Z,12.47
2017-06-01T07:12:30.882Z,12.49
2017-06-01T07:13:31.496Z,12.55
2017-06-01T07:14:32.119Z,12.54
2017-06-01T07:15:32.733Z,12.64
2017-06-01T07:16:33.353Z,12.75
2017-06-01T07:17:33.974Z,12.82
2017-06-01T07:18:34.590Z,12.90
2017-06-01T07:19:35.208Z,12.91
2017-06-01T07:20:35.825Z,13.05
2017-06-01T07:21:36.442Z,13.08
2017-06-01T07:22:37.110Z,13.15
2017-06-01T07:23:37.727Z,13.16
2017-06-01T07:24:38.345Z,13.23
2017-06-01T07:25:38.960Z,13.19
2017-06-01T07:26:39.580Z,13.28
2017-06-01T07:27:40.246Z,13.33
2017-06-01T07:28:40.864Z,13.37
2017-06-01T07:29:41.480Z,13.27
2017-06-01T07:30:42.155Z,13.16
2017-06-01T07:31:42.718Z,13.23
2017-06-01T07:32:43.390Z,13.22
2017-06-01T07:33:44.010Z,13.20
2017-06-01T07:34:44.625Z,13.13
2017-06-01T07:35:45.257Z,13.16
2017-06-01T07:36:45.874Z,13.16
2017-06-01T07:37:46.543Z,13.13
2017-06-01T07:38:47.159Z,13.13
2017-06-01T07:39:47.776Z,13.13
2017-06-01T07:40:48.395Z,13.19
2017-06-01T07:41:49.017Z,13.19
2017-06-01T07:42:49.682Z,13.20
2017-06-01T07:43:50.301Z,13.28
2017-06-01T07:44:50.919Z,13.28
2017-06-01T07:45:51.536Z,13.18
2017-06-01T07:46:52.153Z,13.19
2017-06-01T07:47:52.827Z,13.27
2017-06-01T07:48:53.441Z,13.25
2017-06-01T07:49:54.059Z,13.28
2017-06-01T07:50:54.696Z,13.30
2017-06-01T07:51:55.294Z,13.35
2017-06-01T07:52:55.963Z,13.39
2017-06-01T07:53:56.582Z,13.46
2017-06-01T07:54:57.199Z,13.52
2017-06-01T07:55:57.822Z,13.63
2017-06-01T07:56:58.445Z,13.65
2017-06-01T07:57:59.109Z,13.78
2017-06-01T07:58:59.726Z,13.87
2017-06-01T08:00:00.349Z,13.77
2017-06-01T08:01:00.970Z,13.74
2017-06-01T08:02:01.591Z,13.74
2017-06-01T08:03:02.298Z,13.70
2017-06-01T08:04:02.912Z,13.57
2017-06-01T08:05:03.531Z,13.62
2017-06-01T08:06:04.152Z,13.56
2017-06-01T08:07:04.769Z,13.59
2017-06-01T08:08:05.437Z,13.53
2017-06-01T08:09:06.053Z,13.57
2017-06-01T08:10:06.704Z,13.53
2017-06-01T08:11:07.330Z,13.56
2017-06-01T08:12:07.943Z,13.67
2017-06-01T08:13:08.613Z,13.71
2017-06-01T08:14:09.231Z,13.74
2017-06-01T08:15:09.855Z,13.72
2017-06-01T08:16:10.476Z,13.71
2017-06-01T08:17:11.092Z,13.62
2017-06-01T08:18:11.759Z,13.65
2017-06-01T08:19:12.379Z,13.65
2017-06-01T08:20:13.003Z,13.62
2017-06-01T08:21:13.618Z,13.52
2017-06-01T08:22:14.273Z,13.53
2017-06-01T08:23:14.887Z,13.60
2017-06-01T08:24:15.509Z,13.62
2017-06-01T08:25:16.126Z,13.74
2017-06-01T08:26:16.744Z,13.77
2017-06-01T08:27:17.362Z,13.75
2017-06-01T08:28:18.030Z,13.83
2017-06-01T08:29:18.679Z,13.95
2017-06-01T08:30:19.303Z,13.93
2017-06-01T08:31:19.926Z,13.93
2017-06-01T08:32:20.547Z,13.95
2017-06-01T08:33:21.213Z,13.95
2017-06-01T08:34:21.837Z,13.93
2017-06-01T08:35:22.453Z,13.95
2017-06-01T08:36:23.071Z,13.81
2017-06-01T08:37:23.696Z,13.77
2017-06-01T08:38:24.312Z,13.70
2017-06-01T08:39:24.930Z,13.72
2017-06-01T08:40:25.584Z,13.92
2017-06-01T08:41:26.203Z,13.93
2017-06-01T08:42:26.826Z,14.14
2017-06-01T08:43:27.493Z,14.25
2017-06-01T08:44:28.112Z,14.26
2017-06-01T08:45:28.732Z,14.36
2017-06-01T08:46:29.349Z,14.35
2017-06-01T08:47:29.966Z,14.40
2017-06-01T08:48:30.633Z,14.37
2017-06-01T08:49:31.259Z,14.40
2017-06-01T08:50:31.874Z,14.36
2017-06-01T08:51:32.493Z,14.33
2017-06-01T08:52:33.111Z,14.36
2017-06-01T08:53:33.728Z,14.30
2017-06-01T08:54:34.380Z,14.22
2017-06-01T08:55:34.998Z,14.25
2017-06-01T08:56:35.618Z,14.28
2017-06-01T08:57:36.238Z,14.18
2017-06-01T08:58:36.908Z,14.22
2017-06-01T08:59:37.532Z,14.12
2017-06-01T09:00:38.155Z,14.15
2017-06-01T09:01:38.777Z,14.22
2017-06-01T09:02:39.396Z,14.20
2017-06-01T09:03:40.059Z,14.28
2017-06-01T09:04:40.678Z,14.35
2017-06-01T09:05:41.301Z,14.40
2017-06-01T09:06:41.923Z,14.41
2017-06-01T09:07:42.544Z,14.47
2017-06-01T09:08:43.162Z,14.45
2017-06-01T09:09:43.777Z,14.54
2017-06-01T09:10:44.399Z,14.60
2017-06-01T09:11:45.021Z,14.70
2017-06-01T09:12:45.635Z,14.72
2017-06-01T09:13:46.311Z,14.79
2017-06-01T09:14:46.933Z,14.82
2017-06-01T09:15:47.548Z,14.89
2017-06-01T09:16:48.168Z,15.06
2017-06-01T09:17:48.793Z,15.09
2017-06-01T09:18:49.408Z,15.18
2017-06-01T09:19:50.027Z,15.18
2017-06-01T09:20:50.646Z,15.10
2017-06-01T09:21:51.264Z,15.09
2017-06-01T09:22:51.884Z,15.14
2017-06-01T09:23:52.554Z,15.06
2017-06-01T09:24:53.173Z,15.02
2017-06-01T09:25:53.798Z,15.04
2017-06-01T09:26:54.415Z,15.10
2017-06-01T09:27:55.039Z,15.09
2017-06-01T09:28:55.705Z,15.03
2017-06-01T09:29:56.324Z,14.99
2017-06-01T09:30:56.946Z,14.94
2017-06-01T09:31:57.570Z,15.00
2017-06-01T09:32:58.192Z,14.96
2017-06-01T09:33:59.057Z,14.89
2017-06-01T09:34:59.678Z,15.03
2017-06-01T09:36:00.296Z,14.91
2017-06-01T09:37:00.923Z,15.02
2017-06-01T09:38:01.539Z,15.14
2017-06-01T09:39:02.208Z,15.21
2017-06-01T09:40:02.827Z,15.21
2017-06-01T09:41:03.483Z,15.27
2017-06-01T09:42:04.102Z,15.31
2017-06-01T09:43:04.723Z,15.40
2017-06-01T09:44:05.389Z,15.49
2017-06-01T09:45:06.008Z,15.43
2017-06-01T09:46:06.660Z,15.46
2017-06-01T09:47:07.279Z,15.33
2017-06-01T09:48:07.904Z,15.42
2017-06-01T09:49:08.570Z,15.43
2017-06-01T09:50:09.221Z,15.40
2017-06-01T09:51:09.843Z,15.61
2017-06-01T09:52:10.459Z,15.70
2017-06-01T09:53:11.082Z,15.92
2017-06-01T09:54:11.702Z,15.83
2017-06-01T09:55:12.321Z,15.88
2017-06-01T09:56:12.978Z,15.88
2017-06-01T09:57:13.600Z,15.88
2017-06-01T09:58:14.219Z,15.91
2017-06-01T09:59:14.839Z,15.94
2017-06-01T10:00:15.457Z,15.98
2017-06-01T10:01:16.077Z,16.00
2017-06-01T10:02:16.697Z,15.97
2017-06-01T10:03:17.321Z,16.04
2017-06-01T10:04:17.989Z,16.20
2017-06-01T10:05:18.610Z,16.39
2017-06-01T10:06:19.229Z,16.41
2017-06-01T10:07:19.849Z,16.61
2017-06-01T10:08:20.476Z,16.83
2017-06-01T10:09:21.141Z,16.87
2017-06-01T10:10:21.766Z,16.83
2017-06-01T10:11:22.383Z,16.71
2017-06-01T10:12:23.004Z,16.54
2017-06-01T10:13:23.629Z,16.60
2017-06-01T10:14:24.330Z,16.51
2017-06-01T10:15:24.949Z,16.39
2017-06-01T10:16:25.568Z,16.41
2017-06-01T10:17:26.188Z,16.56
2017-06-01T10:18:26.809Z,16.72
2017-06-01T10:19:27.429Z,16.81
2017-06-01T10:20:28.050Z,16.68
2017-06-01T10:21:28.670Z,16.72
2017-06-01T10:22:29.290Z,16.74
2017-06-01T10:23:29.911Z,16.74
2017-06-01T10:24:30.581Z,16.72
2017-06-01T10:25:31.200Z,16.69
2017-06-01T10:26:31.825Z,16.66
2017-06-01T10:27:32.450Z,16.84
2017-06-01T10:28:33.071Z,16.91
2017-06-01T10:29:33.689Z,16.81
2017-06-01T10:30:34.314Z,16.83
2017-06-01T10:31:34.939Z,16.69
2017-06-01T10:32:35.562Z,16.61
2017-06-01T10:33:36.179Z,16.46
2017-06-01T10:34:36.798Z,16.35
2017-06-01T10:35:37.418Z,16.35
2017-06-01T10:36:38.038Z,16.20
2017-06-01T10:37:38.665Z,16.05
2017-06-01T10:38:39.282Z,16.02
2017-06-01T10:39:40.153Z,16.02
2017-06-01T10:40:40.773Z,15.92
2017-06-01T10:41:41.392Z,15.94
2017-06-01T10:42:42.019Z,15.92
2017-06-01T10:43:42.635Z,15.90
2017-06-01T10:44:43.305Z,15.76
2017-06-01T10:45:43.932Z,15.68
2017-06-01T10:46:44.549Z,15.62
2017-06-01T10:47:45.169Z,15.68
2017-06-01T10:48:45.789Z,15.68
2017-06-01T10:49:46.473Z,15.79
2017-06-01T10:50:47.083Z,15.91
2017-06-01T10:51:47.703Z,15.97
2017-06-01T10:52:48.323Z,16.20
2017-06-01T10:53:48.943Z,16.35
2017-06-01T10:54:49.561Z,16.42
2017-06-01T10:55:50.188Z,16.60
2017-06-01T10:56:50.807Z,16.78
2017-06-01T10:57:51.426Z,16.79
2017-06-01T10:58:52.062Z,16.86
2017-06-01T10:59:52.918Z,16.97
2017-06-01T11:00:53.537Z,17.01
2017-06-01T11:01:54.157Z,16.90
2017-06-01T11:02:54.785Z,17.01
2017-06-01T11:03:55.403Z,17.02
2017-06-01T11:04:56.323Z,17.09
2017-06-01T11:05:56.943Z,17.05
2017-06-01T11:06:57.568Z,17.12
2017-06-01T11:07:58.220Z,16.94
2017-06-01T11:08:58.846Z,16.81
2017-06-01T11:09:59.515Z,16.69
2017-06-01T11:11:00.135Z,16.72
2017-06-01T11:12:00.762Z,16.72
2017-06-01T11:13:01.379Z,16.72
2017-06-01T11:14:02.002Z,16.69
2017-06-01T11:15:02.871Z,16.91
2017-06-01T11:16:03.497Z,16.90
2017-06-01T11:17:04.116Z,17.02
2017-06-01T11:18:04.743Z,17.02
2017-06-01T11:19:05.360Z,16.90
2017-06-01T11:20:06.036Z,16.86
2017-06-01T11:21:06.654Z,16.76
2017-06-01T11:22:07.309Z,16.69
2017-06-01T11:23:07.931Z,16.57
2017-06-01T11:24:08.550Z,16.50
2017-06-01T11:25:09.227Z,16.38
2017-06-01T11:26:09.844Z,16.39
2017-06-01T11:27:10.465Z,16.21
2017-06-01T11:28:11.087Z,16.04
2017-06-01T11:29:11.708Z,16.08
2017-06-01T11:30:12.327Z,15.92
2017-06-01T11:31:12.947Z,15.92
2017-06-01T11:32:13.570Z,16.08
2017-06-01T11:33:14.192Z,16.08
2017-06-01T11:34:14.812Z,16.01
2017-06-01T11:35:15.434Z,16.01
2017-06-01T11:36:16.111Z,16.02
2017-06-01T11:37:16.671Z,16.05
2017-06-01T11:38:17.291Z,16.01
2017-06-01T11:39:17.917Z,16.05
2017-06-01T11:40:18.586Z,16.15
2017-06-01T11:41:19.216Z,16.21
2017-06-01T11:42:19.831Z,16.31
2017-06-01T11:43:20.452Z,16.24
2017-06-01T11:44:21.073Z,16.33
2017-06-01T11:45:21.743Z,16.28
2017-06-01T11:46:22.369Z,16.38
2017-06-01T11:47:23.022Z,16.38
2017-06-01T11:48:23.643Z,16.43
2017-06-01T11:49:24.261Z,16.42
2017-06-01T11:50:24.931Z,16.50
2017-06-01T11:51:25.584Z,16.58
2017-06-01T11:52:26.212Z,16.53
2017-06-01T11:53:26.828Z,16.46
2017-06-01T11:54:27.449Z,16.43
2017-06-01T11:55:28.120Z,16.36
2017-06-01T11:56:28.740Z,16.33
2017-06-01T11:57:29.361Z,16.31
2017-06-01T11:58:29.982Z,16.15
2017-06-01T11:59:30.601Z,16.16
2017-06-01T12:00:31.303Z,16.16
2017-06-01T12:01:31.928Z,16.08
2017-06-01T12:02:32.547Z,16.09
2017-06-01T12:03:33.166Z,16.05
2017-06-01T12:04:33.787Z,16.01
2017-06-01T12:05:34.637Z,15.91
2017-06-01T12:06:35.259Z,15.91
2017-06-01T12:07:35.885Z,15.80
2017-06-01T12:08:36.504Z,15.83
2017-06-01T12:09:37.129Z,15.95
2017-06-01T12:10:37.753Z,15.90
2017-06-01T12:11:38.369Z,15.94
2017-06-01T12:12:39.021Z,15.97
2017-06-01T12:13:39.641Z,16.09
2017-06-01T12:14:40.261Z,16.05
2017-06-01T12:15:40.938Z,16.01
2017-06-01T12:16:41.567Z,16.02
2017-06-01T12:17:42.183Z,16.10
2017-06-01T12:18:42.804Z,16.09
2017-06-01T12:19:43.422Z,16.24
2017-06-01T12:20:44.093Z,16.09
2017-06-01T12:21:44.719Z,16.21
2017-06-01T12:22:45.336Z,16.20
2017-06-01T12:23:45.962Z,16.28
2017-06-01T12:24:46.579Z,16.33
2017-06-01T12:25:47.254Z,16.38
2017-06-01T12:26:47.906Z,16.35
2017-06-01T12:27:48.523Z,16.35
2017-06-01T12:28:49.145Z,16.08
2017-06-01T12:29:49.765Z,15.91
2017-06-01T12:30:50.434Z,15.73
2017-06-01T12:31:51.054Z,15.70
2017-06-01T12:32:51.707Z,15.72
2017-06-01T12:33:52.327Z,15.72
2017-06-01T12:34:52.947Z,15.79
2017-06-01T12:35:53.618Z,16.05
2017-06-01T12:36:54.244Z,16.28
2017-06-01T12:37:54.860Z,16.43
2017-06-01T12:38:55.480Z,16.54
2017-06-01T12:39:56.100Z,16.68
2017-06-01T12:40:56.776Z,16.78
2017-06-01T12:41:57.394Z,16.71
2017-06-01T12:42:58.014Z,16.81
2017-06-01T12:43:58.637Z,16.81
2017-06-01T12:44:59.256Z,16.79
2017-06-01T12:45:59.931Z,16.87
2017-06-01T12:47:00.549Z,16.69
2017-06-01T12:48:01.202Z,16.60
2017-06-01T12:49:01.823Z,16.53
2017-06-01T12:50:02.444Z,16.49
2017-06-01T12:51:03.120Z,16.41
2017-06-01T12:52:03.738Z,16.51
2017-06-01T12:53:04.390Z,16.51
2017-06-01T12:54:05.016Z,16.57
2017-06-01T12:55:05.641Z,16.60
2017-06-01T12:56:06.306Z,16.61
2017-06-01T12:57:06.926Z,16.71
2017-06-01T12:58:07.577Z,16.64
2017-06-01T12:59:08.198Z,16.69
2017-06-01T13:00:08.818Z,16.76
2017-06-01T13:01:09.490Z,16.74
2017-06-01T13:02:10.120Z,16.74
2017-06-01T13:03:10.737Z,16.69